Portada
METAR-TAF:

METAR-TAF

Aeropuertos :

Recife, Pernambuco, Brasil

Aeropuerto Internacional de Recife

latitud: 08-08S, longitud: 034-55W, altitud: 19 m

Observación

El informe se hizo hace 55 minutos, a las 08:00 UTC
Viento 3 kt del oeste-suroeste
Temperatura 25°C
Humedad 89%
Presión 1012 hPa
Visibilidad 10 km o más
Nubes dispersas a una altura de 2300 ft

METAR: SBRF 270800Z 24003KT 9999 SCT023 25/23 Q1012

Hora: 05:55 (08:55 UTC)

Pronóstico

El informe se hizo hace 6 horas y 25 minutos, a las 02:30 UTC
Pronóstico válido del 27 a las 06 UTC al 28 a las 06 UTC
Viento 8 kt del sur-sureste
Visibilidad: 8000 m
Nubes dispersas a una altura de 2000 ft
Probabilidad 30% :
Temporalmente
del 27 a las 07 UTC al 27 a las 10 UTC
Visibilidad: 6000 m
Cielo nuboso a una altura de 1700 ft
chaparrones de lluvia

TAF: SBRF 270230Z 2706/2806 15008KT 8000 SCT020 TN26/2708Z TX30/2715Z PROB30 TEMPO 2707/2710 6000 SHRA BKN017 RMK PCH

Observaciones y pronósticos meteorológicos de más de 4000 aeropuertos (mensajes METAR y TAF).

Los puntos amarillos y rojos representan las estaciones disponibles.

Ponga el ratón en el punto deseado para ver el nombre de la estación.

Haga clic para ver las observaciones y los pronósticos meteorológicos.

Para cambiar el mapa : haga clic en los botones verdes con una cruz de color negro para hacer un zoom, en el botón verde con un guión para alejar o en las flechas verdes para mapas adyacentes.


METAR-TAF: